<?xml version="1.0" encoding="UTF-8" standalone="no" ?>
<gpx xmlns="http://www.topografix.com/GPX/1/1" xmlns:xsi="http://www.w3.org/2001/XMLSchema-instance" xsi:schemaLocation="http://www.topografix.com/GPX/1/1 http://www.topografix.com/GPX/1/1/gpx.xsd" version="1.1" creator="VisuGPX - https://www.visugpx.com">
  <metadata>
    <name>Montflanquin Gravel</name>
    <desc><![CDATA[Hors asphalte gravel OK (testé avec Diverge 4, pneus 50mm)]]></desc>
  </metadata>
  <wpt lat="44.5662" lon="0.73317">
    <ele>120.6</ele>
    <name><![CDATA[David haut/bas]]></name>
  </wpt>
  <wpt lat="44.55013" lon="0.85946">
    <ele>126.4</ele>
  </wpt>
  <trk>
    <name><![CDATA[Montflanquin Gravel_23]]></name>
    <trkseg>
      <trkpt lat="44.61241" lon="0.86404">
        <ele>182.8</ele>
        <time>2026-08-23T07:45:33Z</time>
      </trkpt>
      <trkpt lat="44.61242" lon="0.8641">
        <ele>182.8</ele>
        <time>2026-08-23T07:45:34Z</time>
      </trkpt>
      <trkpt lat="44.6124" lon="0.86415">
        <ele>183.2</ele>
        <time>2026-08-23T07:45:35Z</time>
      </trkpt>
      <trkpt lat="44.61238" lon="0.8642">
        <ele>183.2</ele>
        <time>2026-08-23T07:45:36Z</time>
      </trkpt>
      <trkpt lat="44.61235" lon="0.86425">
        <ele>183.4</ele>
        <time>2026-08-23T07:45:37Z</time>
      </trkpt>
      <trkpt lat="44.61232" lon="0.8643">
        <ele>183.4</ele>
        <time>2026-08-23T07:45:38Z</time>
      </trkpt>
      <trkpt lat="44.61228" lon="0.86434">
        <ele>183.4</ele>
        <time>2026-08-23T07:45:39Z</time>
      </trkpt>
      <trkpt lat="44.61225" lon="0.86438">
        <ele>183.4</ele>
        <time>2026-08-23T07:45:40Z</time>
      </trkpt>
      <trkpt lat="44.61221" lon="0.86443">
        <ele>183.4</ele>
        <time>2026-08-23T07:45:41Z</time>
      </trkpt>
      <trkpt lat="44.61218" lon="0.86447">
        <ele>183.4</ele>
        <time>2026-08-23T07:45:42Z</time>
      </trkpt>
      <trkpt lat="44.61214" lon="0.86451">
        <ele>183.4</ele>
        <time>2026-08-23T07:45:43Z</time>
      </trkpt>
      <trkpt lat="44.61211" lon="0.86456">
        <ele>183.4</ele>
        <time>2026-08-23T07:45:44Z</time>
      </trkpt>
      <trkpt lat="44.61208" lon="0.8646">
        <ele>183.4</ele>
        <time>2026-08-23T07:45:45Z</time>
      </trkpt>
      <trkpt lat="44.61204" lon="0.86465">
        <ele>183.6</ele>
        <time>2026-08-23T07:45:46Z</time>
      </trkpt>
      <trkpt lat="44.61201" lon="0.86469">
        <ele>183.6</ele>
        <time>2026-08-23T07:45:47Z</time>
      </trkpt>
      <trkpt lat="44.61198" lon="0.86473">
        <ele>183.6</ele>
        <time>2026-08-23T07:45:48Z</time>
      </trkpt>
      <trkpt lat="44.61194" lon="0.86478">
        <ele>183.8</ele>
        <time>2026-08-23T07:45:49Z</time>
      </trkpt>
      <trkpt lat="44.61191" lon="0.86483">
        <ele>184</ele>
        <time>2026-08-23T07:45:50Z</time>
      </trkpt>
      <trkpt lat="44.61188" lon="0.86487">
        <ele>184.2</ele>
        <time>2026-08-23T07:45:51Z</time>
      </trkpt>
      <trkpt lat="44.61184" lon="0.86492">
        <ele>184.2</ele>
        <time>2026-08-23T07:45:52Z</time>
      </trkpt>
      <trkpt lat="44.61181" lon="0.86496">
        <ele>184.2</ele>
        <time>2026-08-23T07:45:53Z</time>
      </trkpt>
      <trkpt lat="44.61177" lon="0.86501">
        <ele>184.4</ele>
        <time>2026-08-23T07:45:54Z</time>
      </trkpt>
      <trkpt lat="44.61174" lon="0.86505">
        <ele>184.4</ele>
        <time>2026-08-23T07:45:55Z</time>
      </trkpt>
      <trkpt lat="44.6117" lon="0.86509">
        <ele>184.6</ele>
        <time>2026-08-23T07:45:56Z</time>
      </trkpt>
      <trkpt lat="44.61167" lon="0.86514">
        <ele>184.6</ele>
        <time>2026-08-23T07:45:57Z</time>
      </trkpt>
      <trkpt lat="44.61164" lon="0.8652">
        <ele>184.6</ele>
        <time>2026-08-23T07:45:58Z</time>
      </trkpt>
      <trkpt lat="44.61161" lon="0.86526">
        <ele>184.6</ele>
        <time>2026-08-23T07:45:59Z</time>
      </trkpt>
      <trkpt lat="44.61158" lon="0.86533">
        <ele>184.6</ele>
        <time>2026-08-23T07:46:00Z</time>
      </trkpt>
      <trkpt lat="44.61155" lon="0.86543">
        <ele>184.6</ele>
        <time>2026-08-23T07:46:01Z</time>
      </trkpt>
      <trkpt lat="44.61153" lon="0.86551">
        <ele>184.6</ele>
        <time>2026-08-23T07:46:02Z</time>
      </trkpt>
      <trkpt lat="44.61152" lon="0.86559">
        <ele>184.6</ele>
        <time>2026-08-23T07:46:03Z</time>
      </trkpt>
      <trkpt lat="44.6115" lon="0.86567">
        <ele>184.6</ele>
        <time>2026-08-23T07:46:04Z</time>
      </trkpt>
      <trkpt lat="44.61149" lon="0.86576">
        <ele>184.4</ele>
        <time>2026-08-23T07:46:05Z</time>
      </trkpt>
      <trkpt lat="44.61147" lon="0.86584">
        <ele>184.2</ele>
        <time>2026-08-23T07:46:06Z</time>
      </trkpt>
      <trkpt lat="44.61145" lon="0.86593">
        <ele>183.8</ele>
        <time>2026-08-23T07:46:07Z</time>
      </trkpt>
      <trkpt lat="44.61143" lon="0.86601">
        <ele>183.6</ele>
        <time>2026-08-23T07:46:08Z</time>
      </trkpt>
      <trkpt lat="44.61141" lon="0.86609">
        <ele>183.4</ele>
        <time>2026-08-23T07:46:09Z</time>
      </trkpt>
      <trkpt lat="44.61139" lon="0.86616">
        <ele>183.2</ele>
        <time>2026-08-23T07:46:10Z</time>
      </trkpt>
      <trkpt lat="44.61137" lon="0.86623">
        <ele>182.8</ele>
        <time>2026-08-23T07:46:11Z</time>
      </trkpt>
      <trkpt lat="44.61135" lon="0.8663">
        <ele>182.6</ele>
        <time>2026-08-23T07:46:12Z</time>
      </trkpt>
      <trkpt lat="44.61133" lon="0.86638">
        <ele>182.4</ele>
        <time>2026-08-23T07:46:13Z</time>
      </trkpt>
      <trkpt lat="44.61132" lon="0.86645">
        <ele>182.4</ele>
        <time>2026-08-23T07:46:14Z</time>
      </trkpt>
      <trkpt lat="44.61132" lon="0.86652">
        <ele>182.2</ele>
        <time>2026-08-23T07:46:15Z</time>
      </trkpt>
      <trkpt lat="44.61132" lon="0.86658">
        <ele>182</ele>
        <time>2026-08-23T07:46:16Z</time>
      </trkpt>
      <trkpt lat="44.61132" lon="0.86664">
        <ele>181.8</ele>
        <time>2026-08-23T07:46:17Z</time>
      </trkpt>
      <trkpt lat="44.61132" lon="0.8667">
        <ele>181.6</ele>
        <time>2026-08-23T07:46:18Z</time>
      </trkpt>
      <trkpt lat="44.61131" lon="0.86677">
        <ele>181.4</ele>
        <time>2026-08-23T07:46:19Z</time>
      </trkpt>
      <trkpt lat="44.61129" lon="0.86682">
        <ele>181</ele>
        <time>2026-08-23T07:46:20Z</time>
      </trkpt>
      <trkpt lat="44.61127" lon="0.86688">
        <ele>180.6</ele>
        <time>2026-08-23T07:46:21Z</time>
      </trkpt>
      <trkpt lat="44.61125" lon="0.86694">
        <ele>180.4</ele>
        <time>2026-08-23T07:46:22Z</time>
      </trkpt>
      <trkpt lat="44.61123" lon="0.86701">
        <ele>180.2</ele>
        <time>2026-08-23T07:46:23Z</time>
      </trkpt>
      <trkpt lat="44.61122" lon="0.86707">
        <ele>179.6</ele>
        <time>2026-08-23T07:46:24Z</time>
      </trkpt>
      <trkpt lat="44.6112" lon="0.86713">
        <ele>179.4</ele>
        <time>2026-08-23T07:46:25Z</time>
      </trkpt>
      <trkpt lat="44.61119" lon="0.86718">
        <ele>179</ele>
        <time>2026-08-23T07:46:26Z</time>
      </trkpt>
      <trkpt lat="44.61117" lon="0.86723">
        <ele>178.6</ele>
        <time>2026-08-23T07:46:27Z</time>
      </trkpt>
      <trkpt lat="44.61115" lon="0.86729">
        <ele>178.6</ele>
        <time>2026-08-23T07:46:28Z</time>
      </trkpt>
      <trkpt lat="44.61114" lon="0.86735">
        <ele>178.4</ele>
        <time>2026-08-23T07:46:29Z</time>
      </trkpt>
      <trkpt lat="44.61112" lon="0.86741">
        <ele>178.2</ele>
        <time>2026-08-23T07:46:30Z</time>
      </trkpt>
      <trkpt lat="44.6111" lon="0.86748">
        <ele>178</ele>
        <time>2026-08-23T07:46:31Z</time>
      </trkpt>
      <trkpt lat="44.61108" lon="0.86755">
        <ele>178</ele>
        <time>2026-08-23T07:46:32Z</time>
      </trkpt>
      <trkpt lat="44.61106" lon="0.86763">
        <ele>177.8</ele>
        <time>2026-08-23T07:46:33Z</time>
      </trkpt>
      <trkpt lat="44.61104" lon="0.8677">
        <ele>177.6</ele>
        <time>2026-08-23T07:46:34Z</time>
      </trkpt>
      <trkpt lat="44.61103" lon="0.86781">
        <ele>177.4</ele>
        <time>2026-08-23T07:46:35Z</time>
      </trkpt>
      <trkpt lat="44.61102" lon="0.86789">
        <ele>177.2</ele>
        <time>2026-08-23T07:46:36Z</time>
      </trkpt>
      <trkpt lat="44.61101" lon="0.86796">
        <ele>176.8</ele>
        <time>2026-08-23T07:46:37Z</time>
      </trkpt>
      <trkpt lat="44.611" lon="0.86801">
        <ele>176.6</ele>
        <time>2026-08-23T07:46:38Z</time>
      </trkpt>
      <trkpt lat="44.61099" lon="0.86806">
        <ele>176.2</ele>
        <time>2026-08-23T07:46:39Z</time>
      </trkpt>
      <trkpt lat="44.61097" lon="0.86812">
        <ele>175.6</ele>
        <time>2026-08-23T07:46:40Z</time>
      </trkpt>
      <trkpt lat="44.61095" lon="0.86817">
        <ele>175.4</ele>
        <time>2026-08-23T07:46:41Z</time>
      </trkpt>
      <trkpt lat="44.61092" lon="0.86823">
        <ele>175</ele>
        <time>2026-08-23T07:46:42Z</time>
      </trkpt>
      <trkpt lat="44.61089" lon="0.86828">
        <ele>174.6</ele>
        <time>2026-08-23T07:46:43Z</time>
      </trkpt>
      <trkpt lat="44.61087" lon="0.86832">
        <ele>174.6</ele>
        <time>2026-08-23T07:46:44Z</time>
      </trkpt>
      <trkpt lat="44.61084" lon="0.86836">
        <ele>174.4</ele>
        <time>2026-08-23T07:46:45Z</time>
      </trkpt>
      <trkpt lat="44.61082" lon="0.8684">
        <ele>174.4</ele>
        <time>2026-08-23T07:46:46Z</time>
      </trkpt>
      <trkpt lat="44.61081" lon="0.86845">
        <ele>174.2</ele>
        <time>2026-08-23T07:46:47Z</time>
      </trkpt>
      <trkpt lat="44.61079" lon="0.8685">
        <ele>174.2</ele>
        <time>2026-08-23T07:46:48Z</time>
      </trkpt>
      <trkpt lat="44.61078" lon="0.86857">
        <ele>174.2</ele>
        <time>2026-08-23T07:46:49Z</time>
      </trkpt>
      <trkpt lat="44.61078" lon="0.86863">
        <ele>174.2</ele>
        <time>2026-08-23T07:46:50Z</time>
      </trkpt>
      <trkpt lat="44.61077" lon="0.86869">
        <ele>174.2</ele>
        <time>2026-08-23T07:46:51Z</time>
      </trkpt>
      <trkpt lat="44.61077" lon="0.86875">
        <ele>174</ele>
        <time>2026-08-23T07:46:52Z</time>
      </trkpt>
      <trkpt lat="44.61077" lon="0.8688">
        <ele>173.8</ele>
        <time>2026-08-23T07:46:53Z</time>
      </trkpt>
      <trkpt lat="44.61076" lon="0.86885">
        <ele>173.8</ele>
        <time>2026-08-23T07:46:54Z</time>
      </trkpt>
      <trkpt lat="44.61075" lon="0.86889">
        <ele>173.6</ele>
        <time>2026-08-23T07:46:55Z</time>
      </trkpt>
      <trkpt lat="44.61073" lon="0.86893">
        <ele>173.2</ele>
        <time>2026-08-23T07:46:56Z</time>
      </trkpt>
      <trkpt lat="44.61071" lon="0.86897">
        <ele>172.8</ele>
        <time>2026-08-23T07:46:57Z</time>
      </trkpt>
      <trkpt lat="44.61069" lon="0.86902">
        <ele>172.4</ele>
        <time>2026-08-23T07:46:58Z</time>
      </trkpt>
      <trkpt lat="44.61067" lon="0.86906">
        <ele>172.2</ele>
        <time>2026-08-23T07:46:59Z</time>
      </trkpt>
      <trkpt lat="44.61064" lon="0.8691">
        <ele>172</ele>
        <time>2026-08-23T07:47:00Z</time>
      </trkpt>
      <trkpt lat="44.61061" lon="0.86915">
        <ele>171.8</ele>
        <time>2026-08-23T07:47:01Z</time>
      </trkpt>
      <trkpt lat="44.61058" lon="0.8692">
        <ele>171.6</ele>
        <time>2026-08-23T07:47:02Z</time>
      </trkpt>
      <trkpt lat="44.61055" lon="0.86924">
        <ele>171.6</ele>
        <time>2026-08-23T07:47:03Z</time>
      </trkpt>
      <trkpt lat="44.61053" lon="0.86929">
        <ele>171.6</ele>
        <time>2026-08-23T07:47:04Z</time>
      </trkpt>
      <trkpt lat="44.6105" lon="0.86934">
        <ele>171.6</ele>
        <time>2026-08-23T07:47:05Z</time>
      </trkpt>
      <trkpt lat="44.61049" lon="0.8694">
        <ele>171.4</ele>
        <time>2026-08-23T07:47:06Z</time>
      </trkpt>
      <trkpt lat="44.61048" lon="0.86946">
        <ele>171.2</ele>
        <time>2026-08-23T07:47:07Z</time>
      </trkpt>
      <trkpt lat="44.61047" lon="0.86954">
        <ele>171</ele>
        <time>2026-08-23T07:47:08Z</time>
      </trkpt>
      <trkpt lat="44.61046" lon="0.86964">
        <ele>170.6</ele>
        <time>2026-08-23T07:47:09Z</time>
      </trkpt>
      <trkpt lat="44.61045" lon="0.86972">
        <ele>170</ele>
        <time>2026-08-23T07:47:10Z</time>
      </trkpt>
      <trkpt lat="44.61044" lon="0.8698">
        <ele>169.6</ele>
        <time>2026-08-23T07:47:11Z</time>
      </trkpt>
      <trkpt lat="44.61042" lon="0.86987">
        <ele>169</ele>
        <time>2026-08-23T07:47:12Z</time>
      </trkpt>
      <trkpt lat="44.6104" lon="0.86995">
        <ele>168.6</ele>
        <time>2026-08-23T07:47:13Z</time>
      </trkpt>
      <trkpt lat="44.61037" lon="0.87002">
        <ele>168.4</ele>
        <time>2026-08-23T07:47:14Z</time>
      </trkpt>
      <trkpt lat="44.61033" lon="0.87008">
        <ele>168.4</ele>
        <time>2026-08-23T07:47:15Z</time>
      </trkpt>
      <trkpt lat="44.6103" lon="0.87015">
        <ele>168.2</ele>
        <time>2026-08-23T07:47:16Z</time>
      </trkpt>
      <trkpt lat="44.61028" lon="0.87021">
        <ele>167.8</ele>
        <time>2026-08-23T07:47:17Z</time>
      </trkpt>
      <trkpt lat="44.61026" lon="0.87026">
        <ele>167.8</ele>
        <time>2026-08-23T07:47:18Z</time>
      </trkpt>
      <trkpt lat="44.61026" lon="0.87032">
        <ele>167.8</ele>
        <time>2026-08-23T07:47:19Z</time>
      </trkpt>
      <trkpt lat="44.61026" lon="0.87039">
        <ele>167.6</ele>
        <time>2026-08-23T07:47:20Z</time>
      </trkpt>
      <trkpt lat="44.61028" lon="0.87047">
        <ele>167.6</ele>
        <time>2026-08-23T07:47:21Z</time>
      </trkpt>
      <trkpt lat="44.61029" lon="0.87055">
        <ele>167.6</ele>
        <time>2026-08-23T07:47:22Z</time>
      </trkpt>
      <trkpt lat="44.61031" lon="0.87066">
        <ele>167.6</ele>
        <time>2026-08-23T07:47:23Z</time>
      </trkpt>
      <trkpt lat="44.61033" lon="0.87075">
        <ele>167.4</ele>
        <time>2026-08-23T07:47:24Z</time>
      </trkpt>
      <trkpt lat="44.61034" lon="0.87084">
        <ele>167.4</ele>
        <time>2026-08-23T07:47:25Z</time>
      </trkpt>
      <trkpt lat="44.61035" lon="0.87093">
        <ele>167.2</ele>
        <time>2026-08-23T07:47:26Z</time>
      </trkpt>
      <trkpt lat="44.61035" lon="0.87103">
        <ele>167</ele>
        <time>2026-08-23T07:47:27Z</time>
      </trkpt>
      <trkpt lat="44.61035" lon="0.87112">
        <ele>166.8</ele>
        <time>2026-08-23T07:47:28Z</time>
      </trkpt>
      <trkpt lat="44.61035" lon="0.87121">
        <ele>166.6</ele>
        <time>2026-08-23T07:47:29Z</time>
      </trkpt>
      <trkpt lat="44.61034" lon="0.87128">
        <ele>166.6</ele>
        <time>2026-08-23T07:47:30Z</time>
      </trkpt>
      <trkpt lat="44.61034" lon="0.87135">
        <ele>166.4</ele>
        <time>2026-08-23T07:47:31Z</time>
      </trkpt>
      <trkpt lat="44.61035" lon="0.8714">
        <ele>166.2</ele>
        <time>2026-08-23T07:47:32Z</time>
      </trkpt>
      <trkpt lat="44.61035" lon="0.87146">
        <ele>166.2</ele>
        <time>2026-08-23T07:47:33Z</time>
      </trkpt>
      <trkpt lat="44.61034" lon="0.87151">
        <ele>165.8</ele>
        <time>2026-08-23T07:47:34Z</time>
      </trkpt>
      <trkpt lat="44.61032" lon="0.87157">
        <ele>165.6</ele>
        <time>2026-08-23T07:47:35Z</time>
      </trkpt>
      <trkpt lat="44.61029" lon="0.87163">
        <ele>165.2</ele>
        <time>2026-08-23T07:47:36Z</time>
      </trkpt>
      <trkpt lat="44.61027" lon="0.87169">
        <ele>164.8</ele>
        <time>2026-08-23T07:47:37Z</time>
      </trkpt>
      <trkpt lat="44.61024" lon="0.87176">
        <ele>164.6</ele>
        <time>2026-08-23T07:47:38Z</time>
      </trkpt>
      <trkpt lat="44.61021" lon="0.87182">
        <ele>164.4</ele>
        <time>2026-08-23T07:47:39Z</time>
      </trkpt>
      <trkpt lat="44.61018" lon="0.87188">
        <ele>164.4</ele>
        <time>2026-08-23T07:47:40Z</time>
      </trkpt>
      <trkpt lat="44.61015" lon="0.87195">
        <ele>164.4</ele>
        <time>2026-08-23T07:47:41Z</time>
      </trkpt>
      <trkpt lat="44.61012" lon="0.87201">
        <ele>164.2</ele>
        <time>2026-08-23T07:47:42Z</time>
      </trkpt>
      <trkpt lat="44.61008" lon="0.8721">
        <ele>164.2</ele>
        <time>2026-08-23T07:47:43Z</time>
      </trkpt>
      <trkpt lat="44.61006" lon="0.87217">
        <ele>163.8</ele>
        <time>2026-08-23T07:47:44Z</time>
      </trkpt>
      <trkpt lat="44.61003" lon="0.87224">
        <ele>163.6</ele>
        <time>2026-08-23T07:47:45Z</time>
      </trkpt>
      <trkpt lat="44.61001" lon="0.87228">
        <ele>163.6</ele>
        <time>2026-08-23T07:47:46Z</time>
      </trkpt>
      <trkpt lat="44.60999" lon="0.87233">
        <ele>163.6</ele>
        <time>2026-08-23T07:47:47Z</time>
      </trkpt>
      <trkpt lat="44.60997" lon="0.87238">
        <ele>163.4</ele>
        <time>2026-08-23T07:47:48Z</time>
      </trkpt>
      <trkpt lat="44.60995" lon="0.87243">
        <ele>163.4</ele>
        <time>2026-08-23T07:47:49Z</time>
      </trkpt>
      <trkpt lat="44.60992" lon="0.87249">
        <ele>163.4</ele>
        <time>2026-08-23T07:47:50Z</time>
      </trkpt>
      <trkpt lat="44.6099" lon="0.87253">
        <ele>163.4</ele>
        <time>2026-08-23T07:47:51Z</time>
      </trkpt>
      <trkpt lat="44.60988" lon="0.87258">
        <ele>163.4</ele>
        <time>2026-08-23T07:47:52Z</time>
      </trkpt>
      <trkpt lat="44.60985" lon="0.87263">
        <ele>163.4</ele>
        <time>2026-08-23T07:47:53Z</time>
      </trkpt>
      <trkpt lat="44.60983" lon="0.87269">
        <ele>163.4</ele>
        <time>2026-08-23T07:47:54Z</time>
      </trkpt>
      <trkpt lat="44.6098" lon="0.87275">
        <ele>163.4</ele>
        <time>2026-08-23T07:47:55Z</time>
      </trkpt>
      <trkpt lat="44.60977" lon="0.8728">
        <ele>163.2</ele>
        <time>2026-08-23T07:47:56Z</time>
      </trkpt>
      <trkpt lat="44.60974" lon="0.87286">
        <ele>163.2</ele>
        <time>2026-08-23T07:47:57Z</time>
      </trkpt>
      <trkpt lat="44.6097" lon="0.87292">
        <ele>163</ele>
        <time>2026-08-23T07:47:58Z</time>
      </trkpt>
      <trkpt lat="44.60967" lon="0.87297">
        <ele>162.8</ele>
        <time>2026-08-23T07:47:59Z</time>
      </trkpt>
      <trkpt lat="44.60963" lon="0.87302">
        <ele>162.8</ele>
        <time>2026-08-23T07:48:00Z</time>
      </trkpt>
      <trkpt lat="44.6096" lon="0.87308">
        <ele>162.6</ele>
        <time>2026-08-23T07:48:01Z</time>
      </trkpt>
      <trkpt lat="44.60956" lon="0.87316">
        <ele>162.4</ele>
        <time>2026-08-23T07:48:02Z</time>
      </trkpt>
      <trkpt lat="44.60953" lon="0.87323">
        <ele>162.2</ele>
        <time>2026-08-23T07:48:03Z</time>
      </trkpt>
      <trkpt lat="44.60949" lon="0.8733">
        <ele>162.2</ele>
        <time>2026-08-23T07:48:04Z</time>
      </trkpt>
      <trkpt lat="44.60946" lon="0.87337">
        <ele>161.8</ele>
        <time>2026-08-23T07:48:05Z</time>
      </trkpt>
      <trkpt lat="44.60942" lon="0.87343">
        <ele>161.6</ele>
        <time>2026-08-23T07:48:06Z</time>
      </trkpt>
      <trkpt lat="44.60938" lon="0.87349">
        <ele>161.6</ele>
        <time>2026-08-23T07:48:07Z</time>
      </trkpt>
      <trkpt lat="44.60934" lon="0.87355">
        <ele>161.4</ele>
        <time>2026-08-23T07:48:08Z</time>
      </trkpt>
      <trkpt lat="44.6093" lon="0.8736">
        <ele>161</ele>
        <time>2026-08-23T07:48:09Z</time>
      </trkpt>
      <trkpt lat="44.60926" lon="0.87365">
        <ele>160.6</ele>
        <time>2026-08-23T07:48:10Z</time>
      </trkpt>
      <trkpt lat="44.60922" lon="0.8737">
        <ele>160.4</ele>
        <time>2026-08-23T07:48:11Z</time>
      </trkpt>
      <trkpt lat="44.60918" lon="0.87376">
        <ele>160.2</ele>
        <time>2026-08-23T07:48:12Z</time>
      </trkpt>
      <trkpt lat="44.60914" lon="0.8738">
        <ele>160</ele>
        <time>2026-08-23T07:48:13Z</time>
      </trkpt>
      <trkpt lat="44.6091" lon="0.87384">
        <ele>159.8</ele>
        <time>2026-08-23T07:48:14Z</time>
      </trkpt>
      <trkpt lat="44.60907" lon="0.87387">
        <ele>159.6</ele>
        <time>2026-08-23T07:48:15Z</time>
      </trkpt>
      <trkpt lat="44.60902" lon="0.8739">
        <ele>159.4</ele>
        <time>2026-08-23T07:48:16Z</time>
      </trkpt>
      <trkpt lat="44.60898" lon="0.87394">
        <ele>159.4</ele>
        <time>2026-08-23T07:48:17Z</time>
      </trkpt>
      <trkpt lat="44.60895" lon="0.87398">
        <ele>159.2</ele>
        <time>2026-08-23T07:48:18Z</time>
      </trkpt>
      <trkpt lat="44.60893" lon="0.87404">
        <ele>158.8</ele>
        <time>2026-08-23T07:48:19Z</time>
      </trkpt>
      <trkpt lat="44.60891" lon="0.8741">
        <ele>158.8</ele>
        <time>2026-08-23T07:48:20Z</time>
      </trkpt>
      <trkpt lat="44.60889" lon="0.87416">
        <ele>158.6</ele>
        <time>2026-08-23T07:48:21Z</time>
      </trkpt>
      <trkpt lat="44.60887" lon="0.87422">
        <ele>158.6</ele>
        <time>2026-08-23T07:48:22Z</time>
      </trkpt>
      <trkpt lat="44.60885" lon="0.87428">
        <ele>158.4</ele>
        <time>2026-08-23T07:48:23Z</time>
      </trkpt>
      <trkpt lat="44.60884" lon="0.87434">
        <ele>158.2</ele>
        <time>2026-08-23T07:48:24Z</time>
      </trkpt>
      <trkpt lat="44.60882" lon="0.8744">
        <ele>158</ele>
        <time>2026-08-23T07:48:25Z</time>
      </trkpt>
      <trkpt lat="44.60881" lon="0.87444">
        <ele>157.8</ele>
        <time>2026-08-23T07:48:26Z</time>
      </trkpt>
      <trkpt lat="44.6088" lon="0.87448">
        <ele>157.8</ele>
        <time>2026-08-23T07:48:27Z</time>
      </trkpt>
      <trkpt lat="44.60879" lon="0.87451">
        <ele>157.6</ele>
        <time>2026-08-23T07:48:28Z</time>
      </trkpt>
      <trkpt lat="44.60878" lon="0.87452">
        <ele>157.6</ele>
        <time>2026-08-23T07:48:29Z</time>
      </trkpt>
      <trkpt lat="44.60878" lon="0.87454">
        <ele>157.6</ele>
        <time>2026-08-23T07:48:30Z</time>
      </trkpt>
      <trkpt lat="44.60877" lon="0.87456">
        <ele>157.4</ele>
        <time>2026-08-23T07:48:31Z</time>
      </trkpt>
      <trkpt lat="44.60876" lon="0.87458">
        <ele>157.4</ele>
        <time>2026-08-23T07:48:32Z</time>
      </trkpt>
      <trkpt lat="44.60876" lon="0.8746">
        <ele>157.2</ele>
        <time>2026-08-23T07:48:33Z</time>
      </trkpt>
      <trkpt lat="44.60875" lon="0.87462">
        <ele>157</ele>
        <time>2026-08-23T07:48:34Z</time>
      </trkpt>
      <trkpt lat="44.60875" lon="0.87464">
        <ele>156.8</ele>
        <time>2026-08-23T07:48:35Z</time>
      </trkpt>
      <trkpt lat="44.60875" lon="0.87467">
        <ele>156.8</ele>
        <time>2026-08-23T07:48:36Z</time>
      </trkpt>
      <trkpt lat="44.60875" lon="0.8747">
        <ele>156.8</ele>
        <time>2026-08-23T07:48:37Z</time>
      </trkpt>
      <trkpt lat="44.60874" lon="0.87474">
        <ele>156.8</ele>
        <time>2026-08-23T07:48:38Z</time>
      </trkpt>
      <trkpt lat="44.60874" lon="0.87478">
        <ele>156.8</ele>
        <time>2026-08-23T07:48:39Z</time>
      </trkpt>
      <trkpt lat="44.60874" lon="0.87485">
        <ele>156.8</ele>
        <time>2026-08-23T07:48:40Z</time>
      </trkpt>
      <trkpt lat="44.60873" lon="0.8749">
        <ele>156.8</ele>
        <time>2026-08-23T07:48:41Z</time>
      </trkpt>
      <trkpt lat="44.60872" lon="0.87495">
        <ele>156.8</ele>
        <time>2026-08-23T07:48:42Z</time>
      </trkpt>
      <trkpt lat="44.60871" lon="0.875">
        <ele>157</ele>
        <time>2026-08-23T07:48:43Z</time>
      </trkpt>
      <trkpt lat="44.6087" lon="0.87505">
        <ele>157.2</ele>
        <time>2026-08-23T07:48:44Z</time>
      </trkpt>
      <trkpt lat="44.60869" lon="0.8751">
        <ele>157.4</ele>
        <time>2026-08-23T07:48:45Z</time>
      </trkpt>
      <trkpt lat="44.60868" lon="0.87515">
        <ele>157.4</ele>
        <time>2026-08-23T07:48:46Z</time>
      </trkpt>
      <trkpt lat="44.60866" lon="0.8752">
        <ele>157.6</ele>
        <time>2026-08-23T07:48:47Z</time>
      </trkpt>
      <trkpt lat="44.60865" lon="0.87525">
        <ele>157.6</ele>
        <time>2026-08-23T07:48:48Z</time>
      </trkpt>
      <trkpt lat="44.60864" lon="0.8753">
        <ele>157.6</ele>
        <time>2026-08-23T07:48:49Z</time>
      </trkpt>
      <trkpt lat="44.60862" lon="0.87534">
        <ele>157.6</ele>
        <time>2026-08-23T07:48:50Z</time>
      </trkpt>
      <trkpt lat="44.6086" lon="0.87538">
        <ele>157.6</ele>
        <time>2026-08-23T07:48:51Z</time>
      </trkpt>
      <trkpt lat="44.60858" lon="0.87542">
        <ele>157.8</ele>
        <time>2026-08-23T07:48:52Z</time>
      </trkpt>
      <trkpt lat="44.60856" lon="0.87545">
        <ele>157.8</ele>
        <time>2026-08-23T07:48:53Z</time>
      </trkpt>
      <trkpt lat="44.60853" lon="0.87548">
        <ele>158</ele>
        <time>2026-08-23T07:48:54Z</time>
      </trkpt>
      <trkpt lat="44.60851" lon="0.87551">
        <ele>158.2</ele>
        <time>2026-08-23T07:48:55Z</time>
      </trkpt>
      <trkpt lat="44.60848" lon="0.87553">
        <ele>158.4</ele>
        <time>2026-08-23T07:48:56Z</time>
      </trkpt>
      <trkpt lat="44.60846" lon="0.87556">
        <ele>158.6</ele>
        <time>2026-08-23T07:48:57Z</time>
      </trkpt>
      <trkpt lat="44.60843" lon="0.87559">
        <ele>159</ele>
        <time>2026-08-23T07:48:58Z</time>
      </trkpt>
      <trkpt lat="44.6084" lon="0.87561">
        <ele>159.4</ele>
        <time>2026-08-23T07:48:59Z</time>
      </trkpt>
      <trkpt lat="44.60838" lon="0.87564">
        <ele>159.6</ele>
        <time>2026-08-23T07:49:00Z</time>
      </trkpt>
      <trkpt lat="44.60836" lon="0.87566">
        <ele>160</ele>
        <time>2026-08-23T07:49:01Z</time>
      </trkpt>
      <trkpt lat="44.60833" lon="0.87569">
        <ele>160.6</ele>
        <time>2026-08-23T07:49:02Z</time>
      </trkpt>
      <trkpt lat="44.60831" lon="0.87571">
        <ele>160.8</ele>
        <time>2026-08-23T07:49:03Z</time>
      </trkpt>
      <trkpt lat="44.60829" lon="0.87573">
        <ele>161.2</ele>
        <time>2026-08-23T07:49:04Z</time>
      </trkpt>
      <trkpt lat="44.60826" lon="0.87575">
        <ele>161.6</ele>
        <time>2026-08-23T07:49:05Z</time>
      </trkpt>
      <trkpt lat="44.60823" lon="0.87578">
        <ele>162.2</ele>
        <time>2026-08-23T07:49:06Z</time>
      </trkpt>
      <trkpt lat="44.6082" lon="0.8758">
        <ele>162.6</ele>
        <time>2026-08-23T07:49:07Z</time>
      </trkpt>
      <trkpt lat="44.60817" lon="0.87582">
        <ele>162.8</ele>
        <time>2026-08-23T07:49:08Z</time>
      </trkpt>
      <trkpt lat="44.60814" lon="0.87585">
        <ele>163</ele>
        <time>2026-08-23T07:49:09Z</time>
      </trkpt>
      <trkpt lat="44.6081" lon="0.87587">
        <ele>163.4</ele>
        <time>2026-08-23T07:49:10Z</time>
      </trkpt>
      <trkpt lat="44.60807" lon="0.8759">
        <ele>163.6</ele>
        <time>2026-08-23T07:49:11Z</time>
      </trkpt>
      <trkpt lat="44.60804" lon="0.87592">
        <ele>163.8</ele>
        <time>2026-08-23T07:49:12Z</time>
      </trkpt>
      <trkpt lat="44.608" lon="0.87595">
        <ele>164</ele>
        <time>2026-08-23T07:49:13Z</time>
      </trkpt>
      <trkpt lat="44.60797" lon="0.87598">
        <ele>164.2</ele>
        <time>2026-08-23T07:49:14Z</time>
      </trkpt>
      <trkpt lat="44.60794" lon="0.876">
        <ele>164.2</ele>
        <time>2026-08-23T07:49:15Z</time>
      </trkpt>
      <trkpt lat="44.60791" lon="0.87603">
        <ele>164.4</ele>
        <time>2026-08-23T07:49:16Z</time>
      </trkpt>
      <trkpt lat="44.60788" lon="0.87605">
        <ele>164.4</ele>
        <time>2026-08-23T07:49:17Z</time>
      </trkpt>
      <trkpt lat="44.60784" lon="0.87606">
        <ele>164.4</ele>
        <time>2026-08-23T07:49:18Z</time>
      </trkpt>
      <trkpt lat="44.6078" lon="0.87608">
        <ele>164.6</ele>
        <time>2026-08-23T07:49:19Z</time>
      </trkpt>
      <trkpt lat="44.60776" lon="0.87608">
        <ele>164.6</ele>
        <time>2026-08-23T07:49:20Z</time>
      </trkpt>
      <trkpt lat="44.60772" lon="0.87609">
        <ele>164.8</ele>
        <time>2026-08-23T07:49:21Z</time>
      </trkpt>
      <trkpt lat="44.60768" lon="0.87609">
        <ele>164.8</ele>
        <time>2026-08-23T07:49:22Z</time>
      </trkpt>
      <trkpt lat="44.60764" lon="0.87608">
        <ele>164.8</ele>
        <time>2026-08-23T07:49:23Z</time>
      </trkpt>
      <trkpt lat="44.60761" lon="0.87608">
        <ele>164.8</ele>
        <time>2026-08-23T07:49:24Z</time>
      </trkpt>
      <trkpt lat="44.60757" lon="0.87607">
        <ele>164.8</ele>
        <time>2026-08-23T07:49:25Z</time>
      </trkpt>
      <trkpt lat="44.60754" lon="0.87606">
        <ele>164.8</ele>
        <time>2026-08-23T07:49:26Z</time>
      </trkpt>
      <trkpt lat="44.6075" lon="0.87605">
        <ele>164.8</ele>
        <time>2026-08-23T07:49:27Z</time>
      </trkpt>
      <trkpt lat="44.60747" lon="0.87606">
        <ele>164.8</ele>
        <time>2026-08-23T07:49:28Z</time>
      </trkpt>
      <trkpt lat="44.60744" lon="0.87607">
        <ele>165</ele>
        <time>2026-08-23T07:49:29Z</time>
      </trkpt>
      <trkpt lat="44.60741" lon="0.8761">
        <ele>165.2</ele>
        <time>2026-08-23T07:49:30Z</time>
      </trkpt>
      <trkpt lat="44.60739" lon="0.87614">
        <ele>165.4</ele>
        <time>2026-08-23T07:49:31Z</time>
      </trkpt>
      <trkpt lat="44.60737" lon="0.87617">
        <ele>165.6</ele>
        <time>2026-08-23T07:49:32Z</time>
      </trkpt>
      <trkpt lat="44.60734" lon="0.87621">
        <ele>165.6</ele>
        <time>2026-08-23T07:49:33Z</time>
      </trkpt>
      <trkpt lat="44.60732" lon="0.87626">
        <ele>165.8</ele>
        <time>2026-08-23T07:49:34Z</time>
      </trkpt>
      <trkpt lat="44.60729" lon="0.8763">
        <ele>166</ele>
        <time>2026-08-23T07:49:35Z</time>
      </trkpt>
      <trkpt lat="44.60725" lon="0.87635">
        <ele>166.2</ele>
        <time>2026-08-23T07:49:36Z</time>
      </trkpt>
      <trkpt lat="44.60722" lon="0.87641">
        <ele>166.2</ele>
        <time>2026-08-23T07:49:37Z</time>
      </trkpt>
      <trkpt lat="44.60719" lon="0.87647">
        <ele>166.2</ele>
        <time>2026-08-23T07:49:38Z</time>
      </trkpt>
      <trkpt lat="44.60715" lon="0.87657">
        <ele>166</ele>
        <time>2026-08-23T07:49:39Z</time>
      </trkpt>
      <trkpt lat="44.60713" lon="0.87664">
        <ele>165.8</ele>
        <time>2026-08-23T07:49:40Z</time>
      </trkpt>
      <trkpt lat="44.60711" lon="0.87671">
        <ele>165.6</ele>
        <time>2026-08-23T07:49:41Z</time>
      </trkpt>
      <trkpt lat="44.60709" lon="0.87678">
        <ele>165.2</ele>
        <time>2026-08-23T07:49:42Z</time>
      </trkpt>
      <trkpt lat="44.60707" lon="0.87683">
        <ele>164.8</ele>
        <time>2026-08-23T07:49:43Z</time>
      </trkpt>
      <trkpt lat="44.60706" lon="0.87688">
        <ele>164.8</ele>
        <time>2026-08-23T07:49:44Z</time>
      </trkpt>
      <trkpt lat="44.60704" lon="0.87693">
        <ele>164.8</ele>
        <time>2026-08-23T07:49:45Z</time>
      </trkpt>
      <trkpt lat="44.60703" lon="0.87698">
        <ele>164.8</ele>
        <time>2026-08-23T07:49:46Z</time>
      </trkpt>
      <trkpt lat="44.60701" lon="0.87703">
        <ele>164.8</ele>
        <time>2026-08-23T07:49:47Z</time>
      </trkpt>
      <trkpt lat="44.607" lon="0.87707">
        <ele>164.8</ele>
        <time>2026-08-23T07:49:48Z</time>
      </trkpt>
      <trkpt lat="44.60699" lon="0.87711">
        <ele>165</ele>
        <time>2026-08-23T07:49:49Z</time>
      </trkpt>
      <trkpt lat="44.60698" lon="0.87714">
        <ele>165.2</ele>
        <time>2026-08-23T07:49:50Z</time>
      </trkpt>
      <trkpt lat="44.60698" lon="0.87716">
        <ele>165.4</ele>
        <time>2026-08-23T07:49:51Z</time>
      </trkpt>
      <trkpt lat="44.60697" lon="0.87718">
        <ele>165.6</ele>
        <time>2026-08-23T07:49:52Z</time>
      </trkpt>
      <trkpt lat="44.60696" lon="0.87721">
        <ele>165.6</ele>
        <time>2026-08-23T07:49:53Z</time>
      </trkpt>
      <trkpt lat="44.60695" lon="0.87724">
        <ele>165.8</ele>
        <time>2026-08-23T07:49:54Z</time>
      </trkpt>
      <trkpt lat="44.60694" lon="0.87727">
        <ele>166</ele>
        <time>2026-08-23T07:49:55Z</time>
      </trkpt>
      <trkpt lat="44.60694" lon="0.8773">
        <ele>166.2</ele>
        <time>2026-08-23T07:49:56Z</time>
      </trkpt>
      <trkpt lat="44.60693" lon="0.87733">
        <ele>166.6</ele>
        <time>2026-08-23T07:49:57Z</time>
      </trkpt>
      <trkpt lat="44.60692" lon="0.87736">
        <ele>166.6</ele>
        <time>2026-08-23T07:49:58Z</time>
      </trkpt>
      <trkpt lat="44.60691" lon="0.87739">
        <ele>166.8</ele>
        <time>2026-08-23T07:49:59Z</time>
      </trkpt>
      <trkpt lat="44.6069" lon="0.87743">
        <ele>167.2</ele>
        <time>2026-08-23T07:50:00Z</time>
      </trkpt>
      <trkpt lat="44.60689" lon="0.87746">
        <ele>167.4</ele>
        <time>2026-08-23T07:50:01Z</time>
      </trkpt>
      <trkpt lat="44.60688" lon="0.87749">
        <ele>167.6</ele>
        <time>2026-08-23T07:50:02Z</time>
      </trkpt>
      <trkpt lat="44.60687" lon="0.87752">
        <ele>167.8</ele>
        <time>2026-08-23T07:50:03Z</time>
      </trkpt>
      <trkpt lat="44.60686" lon="0.87755">
        <ele>167.8</ele>
        <time>2026-08-23T07:50:04Z</time>
      </trkpt>
      <trkpt lat="44.60685" lon="0.87758">
        <ele>168.2</ele>
        <time>2026-08-23T07:50:05Z</time>
      </trkpt>
      <trkpt lat="44.60684" lon="0.8776">
        <ele>168.4</ele>
        <time>2026-08-23T07:50:06Z</time>
      </trkpt>
      <trkpt lat="44.60683" lon="0.87763">
        <ele>168.6</ele>
        <time>2026-08-23T07:50:07Z</time>
      </trkpt>
      <trkpt lat="44.60682" lon="0.87766">
        <ele>168.8</ele>
        <time>2026-08-23T07:50:08Z</time>
      </trkpt>
      <trkpt lat="44.60681" lon="0.87769">
        <ele>169.2</ele>
        <time>2026-08-23T07:50:09Z</time>
      </trkpt>
      <trkpt lat="44.6068" lon="0.87771">
        <ele>169.4</ele>
        <time>2026-08-23T07:50:10Z</time>
      </trkpt>
      <trkpt lat="44.60679" lon="0.87774">
        <ele>169.6</ele>
        <time>2026-08-23T07:50:11Z</time>
      </trkpt>
      <trkpt lat="44.60677" lon="0.87776">
        <ele>169.8</ele>
        <time>2026-08-23T07:50:12Z</time>
      </trkpt>
      <trkpt lat="44.60675" lon="0.87777">
        <ele>170</ele>
        <time>2026-08-23T07:50:13Z</time>
      </trkpt>
      <trkpt lat="44.60673" lon="0.87779">
        <ele>170.2</ele>
        <time>2026-08-23T07:50:14Z</time>
      </trkpt>
      <trkpt lat="44.60671" lon="0.87781">
        <ele>170.4</ele>
        <time>2026-08-23T07:50:15Z</time>
      </trkpt>
      <trkpt lat="44.6067" lon="0.87782">
        <ele>170.6</ele>
        <time>2026-08-23T07:50:16Z</time>
      </trkpt>
      <trkpt lat="44.60668" lon="0.87783">
        <ele>170.8</ele>
        <time>2026-08-23T07:50:17Z</time>
      </trkpt>
      <trkpt lat="44.60666" lon="0.87784">
        <ele>171.2</ele>
        <time>2026-08-23T07:50:18Z</time>
      </trkpt>
      <trkpt lat="44.60665" lon="0.87785">
        <ele>171.4</ele>
        <time>2026-08-23T07:50:19Z</time>
      </trkpt>
      <trkpt lat="44.60664" lon="0.87786">
        <ele>171.4</ele>
        <time>2026-08-23T07:50:20Z</time>
      </trkpt>
      <trkpt lat="44.60662" lon="0.87786">
        <ele>171.6</ele>
        <time>2026-08-23T07:50:21Z</time>
      </trkpt>
      <trkpt lat="44.60661" lon="0.87787">
        <ele>171.8</ele>
        <time>2026-08-23T07:50:22Z</time>
      </trkpt>
      <trkpt lat="44.60658" lon="0.87788">
        <ele>171.8</ele>
        <time>2026-08-23T07:50:23Z</time>
      </trkpt>
      <trkpt lat="44.60656" lon="0.87788">
        <ele>172</ele>
        <time>2026-08-23T07:50:24Z</time>
      </trkpt>
      <trkpt lat="44.60654" lon="0.87788">
        <ele>172.2</ele>
        <time>2026-08-23T07:50:25Z</time>
      </trkpt>
      <trkpt lat="44.60654" lon="0.87788">
        <ele>172.2</ele>
        <time>2026-08-23T07:50:26Z</time>
      </trkpt>
      <trkpt lat="44.60654" lon="0.87788">
        <ele>172.4</ele>
        <time>2026-08-23T07:50:27Z</time>
      </trkpt>
      <trkpt lat="44.60654" lon="0.87788">
        <ele>172.4</ele>
        <time>2026-08-23T07:50:28Z</time>
      </trkpt>
      <trkpt lat="44.60654" lon="0.87788">
        <ele>172.4</ele>
        <time>2026-08-23T07:50:29Z</time>
      </trkpt>
      <trkpt lat="44.60654" lon="0.87788">
        <ele>172.6</ele>
        <time>2026-08-23T07:50:30Z</time>
      </trkpt>
      <trkpt lat="44.60654" lon="0.87788">
        <ele>172.6</ele>
        <time>2026-08-23T07:50:31Z</time>
      </trkpt>
      <trkpt lat="44.60654" lon="0.87788">
        <ele>172.6</ele>
        <time>2026-08-23T07:50:32Z</time>
      </trkpt>
      <trkpt lat="44.60645" lon="0.87796">
        <ele>172.8</ele>
        <time>2026-08-23T07:50:45Z</time>
      </trkpt>
      <trkpt lat="44.60644" lon="0.87799">
        <ele>173</ele>
        <time>2026-08-23T07:50:46Z</time>
      </trkpt>
      <trkpt lat="44.60642" lon="0.87802">
        <ele>173.2</ele>
        <time>2026-08-23T07:50:47Z</time>
      </trkpt>
      <trkpt lat="44.60639" lon="0.87806">
        <ele>173.2</ele>
        <time>2026-08-23T07:50:48Z</time>
      </trkpt>
      <trkpt lat="44.60636" lon="0.87809">
        <ele>173.2</ele>
        <time>2026-08-23T07:50:49Z</time>
      </trkpt>
      <trkpt lat="44.60634" lon="0.87812">
        <ele>173.4</ele>
        <time>2026-08-23T07:50:50Z</time>
      </trkpt>
      <trkpt lat="44.60632" lon="0.87815">
        <ele>173.6</ele>
        <time>2026-08-23T07:50:51Z</time>
      </trkpt>
      <trkpt lat="44.60629" lon="0.87818">
        <ele>173.8</ele>
        <time>2026-08-23T07:50:52Z</time>
      </trkpt>
      <trkpt lat="44.60627" lon="0.87821">
        <ele>174.2</ele>
        <time>2026-08-23T07:50:53Z</time>
      </trkpt>
      <trkpt lat="44.60625" lon="0.87824">
        <ele>174.4</ele>
        <time>2026-08-23T07:50:54Z</time>
      </trkpt>
      <trkpt lat="44.60623" lon="0.87827">
        <ele>174.6</ele>
        <time>2026-08-23T07:50:55Z</time>
      </trkpt>
      <trkpt lat="44.60621" lon="0.8783">
        <ele>174.8</ele>
        <time>2026-08-23T07:50:56Z</time>
      </trkpt>
      <trkpt lat="44.60619" lon="0.87834">
        <ele>175.4</ele>
        <time>2026-08-23T07:50:57Z</time>
      </trkpt>
      <trkpt lat="44.60616" lon="0.87837">
        <ele>175.6</ele>
        <time>2026-08-23T07:50:58Z</time>
      </trkpt>
      <trkpt lat="44.60614" lon="0.87841">
        <ele>175.6</ele>
        <time>2026-08-23T07:50:59Z</time>
      </trkpt>
      <trkpt lat="44.60612" lon="0.87845">
        <ele>175.8</ele>
        <time>2026-08-23T07:51:00Z</time>
      </trkpt>
      <trkpt lat="44.6061" lon="0.87849">
        <ele>176</ele>
        <time>2026-08-23T07:51:01Z</time>
      </trkpt>
      <trkpt lat="44.60607" lon="0.87853">
        <ele>176.2</ele>
        <time>2026-08-23T07:51:02Z</time>
      </trkpt>
      <trkpt lat="44.60605" lon="0.87857">
        <ele>176.2</ele>
        <time>2026-08-23T07:51:03Z</time>
      </trkpt>
      <trkpt lat="44.60603" lon="0.87861">
        <ele>176.4</ele>
        <time>2026-08-23T07:51:04Z</time>
      </trkpt>
      <trkpt lat="44.60601" lon="0.87865">
        <ele>176.6</ele>
        <time>2026-08-23T07:51:05Z</time>
      </trkpt>
      <trkpt lat="44.60599" lon="0.87869">
        <ele>176.6</ele>
        <time>2026-08-23T07:51:06Z</time>
      </trkpt>
      <trkpt lat="44.60597" lon="0.87873">
        <ele>176.8</ele>
        <time>2026-08-23T07:51:07Z</time>
      </trkpt>
      <trkpt lat="44.60595" lon="0.87877">
        <ele>177.2</ele>
        <time>2026-08-23T07:51:08Z</time>
      </trkpt>
      <trkpt lat="44.60593" lon="0.87881">
        <ele>177.2</ele>
        <time>2026-08-23T07:51:09Z</time>
      </trkpt>
      <trkpt lat="44.60591" lon="0.87884">
        <ele>177.4</ele>
        <time>2026-08-23T07:51:10Z</time>
      </trkpt>
      <trkpt lat="44.6059" lon="0.87888">
        <ele>177.6</ele>
        <time>2026-08-23T07:51:11Z</time>
      </trkpt>
      <trkpt lat="44.60589" lon="0.87892">
        <ele>177.6</ele>
        <time>2026-08-23T07:51:12Z</time>
      </trkpt>
      <trkpt lat="44.60589" lon="0.87896">
        <ele>177.8</ele>
        <time>2026-08-23T07:51:13Z</time>
      </trkpt>
      <trkpt lat="44.6059" lon="0.87901">
        <ele>178</ele>
        <time>2026-08-23T07:51:14Z</time>
      </trkpt>
      <trkpt lat="44.60591" lon="0.87905">
        <ele>178.2</ele>
        <time>2026-08-23T07:51:15Z</time>
      </trkpt>
      <trkpt lat="44.60593" lon="0.87909">
        <ele>178.4</ele>
        <time>2026-08-23T07:51:16Z</time>
      </trkpt>
      <trkpt lat="44.60594" lon="0.87914">
        <ele>178.6</ele>
        <time>2026-08-23T07:51:17Z</time>
      </trkpt>
      <trkpt lat="44.60596" lon="0.87918">
        <ele>178.6</ele>
        <time>2026-08-23T07:51:18Z</time>
      </trkpt>
      <trkpt lat="44.60598" lon="0.87923">
        <ele>178.6</ele>
        <time>2026-08-23T07:51:19Z</time>
      </trkpt>
      <trkpt lat="44.606" lon="0.87927">
        <ele>178.8</ele>
        <time>2026-08-23T07:51:20Z</time>
      </trkpt>
      <trkpt lat="44.60601" lon="0.87932">
        <ele>179</ele>
        <time>2026-08-23T07:51:21Z</time>
      </trkpt>
      <trkpt lat="44.60602" lon="0.87937">
        <ele>179.4</ele>
        <time>2026-08-23T07:51:22Z</time>
      </trkpt>
      <trkpt lat="44.60604" lon="0.87943">
        <ele>179.6</ele>
        <time>2026-08-23T07:51:23Z</time>
      </trkpt>
      <trkpt lat="44.60605" lon="0.87949">
        <ele>179.6</ele>
        <time>2026-08-23T07:51:24Z</time>
      </trkpt>
      <trkpt lat="44.60607" lon="0.87955">
        <ele>179.8</ele>
        <time>2026-08-23T07:51:25Z</time>
      </trkpt>
      <trkpt lat="44.60609" lon="0.87962">
        <ele>180</ele>
        <time>2026-08-23T07:51:26Z</time>
      </trkpt>
      <trkpt lat="44.60611" lon="0.87968">
        <ele>180</ele>
        <time>2026-08-23T07:51:27Z</time>
      </trkpt>
      <trkpt lat="44.60613" lon="0.87974">
        <ele>180</ele>
        <time>2026-08-23T07:51:28Z</time>
      </trkpt>
      <trkpt lat="44.60616" lon="0.8798">
        <ele>179.8</ele>
        <time>2026-08-23T07:51:29Z</time>
      </trkpt>
      <trkpt lat="44.60618" lon="0.87985">
        <ele>179.8</ele>
        <time>2026-08-23T07:51:30Z</time>
      </trkpt>
      <trkpt lat="44.60621" lon="0.87991">
        <ele>179.6</ele>
        <time>2026-08-23T07:51:31Z</time>
      </trkpt>
      <trkpt lat="44.60624" lon="0.87996">
        <ele>179.6</ele>
        <time>2026-08-23T07:51:32Z</time>
      </trkpt>
      <trkpt lat="44.60626" lon="0.88001">
        <ele>179.6</ele>
        <time>2026-08-23T07:51:33Z</time>
      </trkpt>
      <trkpt lat="44.60629" lon="0.88005">
        <ele>179.6</ele>
        <time>2026-08-23T07:51:34Z</time>
      </trkpt>
      <trkpt lat="44.60631" lon="0.8801">
        <ele>179.6</ele>
        <time>2026-08-23T07:51:35Z</time>
      </trkpt>
      <trkpt lat="44.60633" lon="0.88014">
        <ele>179.6</ele>
        <time>2026-08-23T07:51:36Z</time>
      </trkpt>
      <trkpt lat="44.60636" lon="0.88019">
        <ele>179.8</ele>
        <time>2026-08-23T07:51:37Z</time>
      </trkpt>
      <trkpt lat="44.60638" lon="0.88023">
        <ele>180.2</ele>
        <time>2026-08-23T07:51:38Z</time>
      </trkpt>
      <trkpt lat="44.60639" lon="0.88027">
        <ele>180.6</ele>
        <time>2026-08-23T07:51:39Z</time>
      </trkpt>
      <trkpt lat="44.60641" lon="0.88031">
        <ele>180.6</ele>
        <time>2026-08-23T07:51:40Z</time>
      </trkpt>
      <trkpt lat="44.60643" lon="0.88035">
        <ele>180.8</ele>
        <time>2026-08-23T07:51:41Z</time>
      </trkpt>
      <trkpt lat="44.60644" lon="0.8804">
        <ele>181.4</ele>
        <time>2026-08-23T07:51:42Z</time>
      </trkpt>
      <trkpt lat="44.60646" lon="0.88044">
        <ele>181.6</ele>
        <time>2026-08-23T07:51:43Z</time>
      </trkpt>
      <trkpt lat="44.60648" lon="0.88048">
        <ele>182</ele>
        <time>2026-08-23T07:51:44Z</time>
      </trkpt>
      <trkpt lat="44.60649" lon="0.88052">
        <ele>182.4</ele>
        <time>2026-08-23T07:51:45Z</time>
      </trkpt>
      <trkpt lat="44.60651" lon="0.88057">
        <ele>182.6</ele>
        <time>2026-08-23T07:51:46Z</time>
      </trkpt>
      <trkpt lat="44.60653" lon="0.88061">
        <ele>182.8</ele>
        <time>2026-08-23T07:51:47Z</time>
      </trkpt>
      <trkpt lat="44.60655" lon="0.88065">
        <ele>183.2</ele>
        <time>2026-08-23T07:51:48Z</time>
      </trkpt>
      <trkpt lat="44.60658" lon="0.88069">
        <ele>183.2</ele>
        <time>2026-08-23T07:51:49Z</time>
      </trkpt>
      <trkpt lat="44.6066" lon="0.88073">
        <ele>183.4</ele>
        <time>2026-08-23T07:51:50Z</time>
      </trkpt>
      <trkpt lat="44.60662" lon="0.88077">
        <ele>183.6</ele>
        <time>2026-08-23T07:51:51Z</time>
      </trkpt>
      <trkpt lat="44.60665" lon="0.88082">
        <ele>183.8</ele>
        <time>2026-08-23T07:51:52Z</time>
      </trkpt>
      <trkpt lat="44.60667" lon="0.88086">
        <ele>183.8</ele>
        <time>2026-08-23T07:51:53Z</time>
      </trkpt>
      <trkpt lat="44.6067" lon="0.88091">
        <ele>184</ele>
        <time>2026-08-23T07:51:54Z</time>
      </trkpt>
      <trkpt lat="44.60672" lon="0.88096">
        <ele>184.2</ele>
        <time>2026-08-23T07:51:55Z</time>
      </trkpt>
      <trkpt lat="44.60675" lon="0.881">
        <ele>184.2</ele>
        <time>2026-08-23T07:51:56Z</time>
      </trkpt>
      <trkpt lat="44.60677" lon="0.88105">
        <ele>184.4</ele>
        <time>2026-08-23T07:51:57Z</time>
      </trkpt>
      <trkpt lat="44.6068" lon="0.88109">
        <ele>184.4</ele>
        <time>2026-08-23T07:51:58Z</time>
      </trkpt>
      <trkpt lat="44.60683" lon="0.88114">
        <ele>184.4</ele>
        <time>2026-08-23T07:51:59Z</time>
      </trkpt>
      <trkpt lat="44.60686" lon="0.88118">
        <ele>184.6</ele>
        <time>2026-08-23T07:52:00Z</time>
      </trkpt>
      <trkpt lat="44.60689" lon="0.88122">
        <ele>184.6</ele>
        <time>2026-08-23T07:52:01Z</time>
      </trkpt>
      <trkpt lat="44.60692" lon="0.88126">
        <ele>184.8</ele>
        <time>2026-08-23T07:52:02Z</time>
      </trkpt>
      <trkpt lat="44.60695" lon="0.8813">
        <ele>184.8</ele>
        <time>2026-08-23T07:52:03Z</time>
      </trkpt>
      <trkpt lat="44.60698" lon="0.88133">
        <ele>185</ele>
        <time>2026-08-23T07:52:04Z</time>
      </trkpt>
      <trkpt lat="44.60701" lon="0.88136">
        <ele>185.2</ele>
        <time>2026-08-23T07:52:05Z</time>
      </trkpt>
      <trkpt lat="44.60705" lon="0.88137">
        <ele>185.4</ele>
        <time>2026-08-23T07:52:06Z</time>
      </trkpt>
      <trkpt lat="44.60708" lon="0.88139">
        <ele>185.6</ele>
        <time>2026-08-23T07:52:07Z</time>
      </trkpt>
      <trkpt lat="44.60712" lon="0.8814">
        <ele>185.6</ele>
        <time>2026-08-23T07:52:08Z</time>
      </trkpt>
      <trkpt lat="44.60715" lon="0.88141">
        <ele>185.6</ele>
        <time>2026-08-23T07:52:09Z</time>
      </trkpt>
      <trkpt lat="44.60719" lon="0.88142">
        <ele>185.8</ele>
        <time>2026-08-23T07:52:10Z</time>
      </trkpt>
      <trkpt lat="44.60722" lon="0.88143">
        <ele>186.2</ele>
        <time>2026-08-23T07:52:11Z</time>
      </trkpt>
      <trkpt lat="44.60726" lon="0.88144">
        <ele>186.4</ele>
        <time>2026-08-23T07:52:12Z</time>
      </trkpt>
      <trkpt lat="44.60729" lon="0.88144">
        <ele>186.6</ele>
        <time>2026-08-23T07:52:13Z</time>
      </trkpt>
      <trkpt lat="44.60732" lon="0.88145">
        <ele>186.8</ele>
        <time>2026-08-23T07:52:14Z</time>
      </trkpt>
      <trkpt lat="44.60736" lon="0.88146">
        <ele>186.8</ele>
        <time>2026-08-23T07:52:15Z</time>
      </trkpt>
      <trkpt lat="44.60739" lon="0.88147">
        <ele>187</ele>
        <time>2026-08-23T07:52:16Z</time>
      </trkpt>
      <trkpt lat="44.60743" lon="0.88148">
        <ele>187.4</ele>
        <time>2026-08-23T07:52:17Z</time>
      </trkpt>
      <trkpt lat="44.60746" lon="0.8815">
        <ele>187.6</ele>
        <time>2026-08-23T07:52:18Z</time>
      </trkpt>
      <trkpt lat="44.6075" lon="0.88151">
        <ele>187.8</ele>
        <time>2026-08-23T07:52:19Z</time>
      </trkpt>
      <trkpt lat="44.60754" lon="0.88153">
        <ele>188.2</ele>
        <time>2026-08-23T07:52:20Z</time>
      </trkpt>
      <trkpt lat="44.60758" lon="0.88154">
        <ele>188.4</ele>
        <time>2026-08-23T07:52:21Z</time>
      </trkpt>
      <trkpt lat="44.60762" lon="0.88156">
        <ele>188.6</ele>
        <time>2026-08-23T07:52:22Z</time>
      </trkpt>
      <trkpt lat="44.60766" lon="0.88157">
        <ele>188.6</ele>
        <time>2026-08-23T07:52:23Z</time>
      </trkpt>
      <trkpt lat="44.6077" lon="0.88159">
        <ele>188.8</ele>
        <time>2026-08-23T07:52:24Z</time>
      </trkpt>
      <trkpt lat="44.60774" lon="0.8816">
        <ele>188.8</ele>
        <time>2026-08-23T07:52:25Z</time>
      </trkpt>
      <trkpt lat="44.60779" lon="0.88162">
        <ele>189</ele>
        <time>2026-08-23T07:52:26Z</time>
      </trkpt>
      <trkpt lat="44.60783" lon="0.88163">
        <ele>189</ele>
        <time>2026-08-23T07:52:27Z</time>
      </trkpt>
      <trkpt lat="44.60787" lon="0.88164">
        <ele>189</ele>
        <time>2026-08-23T07:52:28Z</time>
      </trkpt>
      <trkpt lat="44.60791" lon="0.88165">
        <ele>189</ele>
        <time>2026-08-23T07:52:29Z</time>
      </trkpt>
      <trkpt lat="44.60796" lon="0.88166">
        <ele>189.2</ele>
        <time>2026-08-23T07:52:30Z</time>
      </trkpt>
      <trkpt lat="44.608" lon="0.88166">
        <ele>189.2</ele>
        <time>2026-08-23T07:52:31Z</time>
      </trkpt>
      <trkpt lat="44.60804" lon="0.88167">
        <ele>189.4</ele>
        <time>2026-08-23T07:52:32Z</time>
      </trkpt>
      <trkpt lat="44.60808" lon="0.88167">
        <ele>189.4</ele>
        <time>2026-08-23T07:52:33Z</time>
      </trkpt>
      <trkpt lat="44.60811" lon="0.88168">
        <ele>189.4</ele>
        <time>2026-08-23T07:52:34Z</time>
      </trkpt>
      <trkpt lat="44.60815" lon="0.88168">
        <ele>189.4</ele>
        <time>2026-08-23T07:52:35Z</time>
      </trkpt>
      <trkpt lat="44.60819" lon="0.88168">
        <ele>189.6</ele>
        <time>2026-08-23T07:52:36Z</time>
      </trkpt>
      <trkpt lat="44.60823" lon="0.88168">
        <ele>189.6</ele>
        <time>2026-08-23T07:52:37Z</time>
      </trkpt>
      <trkpt lat="44.60826" lon="0.88168">
        <ele>189.8</ele>
        <time>2026-08-23T07:52:38Z</time>
      </trkpt>
      <trkpt lat="44.60829" lon="0.88168">
        <ele>190</ele>
        <time>2026-08-23T07:52:39Z</time>
      </trkpt>
      <trkpt lat="44.60833" lon="0.88168">
        <ele>190.2</ele>
        <time>2026-08-23T07:52:40Z</time>
      </trkpt>
      <trkpt lat="44.60836" lon="0.88168">
        <ele>190.4</ele>
        <time>2026-08-23T07:52:41Z</time>
      </trkpt>
      <trkpt lat="44.60839" lon="0.88168">
        <ele>190.8</ele>
        <time>2026-08-23T07:52:42Z</time>
      </trkpt>
      <trkpt lat="44.60842" lon="0.88169">
        <ele>191</ele>
        <time>2026-08-23T07:52:43Z</time>
      </trkpt>
      <trkpt lat="44.60844" lon="0.88169">
        <ele>191.4</ele>
        <time>2026-08-23T07:52:44Z</time>
      </trkpt>
      <trkpt lat="44.60844" lon="0.8817">
        <ele>191.6</ele>
        <time>2026-08-23T07:52:45Z</time>
      </trkpt>
      <trkpt lat="44.60845" lon="0.8817">
        <ele>191.6</ele>
        <time>2026-08-23T07:52:46Z</time>
      </trkpt>
      <trkpt lat="44.60845" lon="0.88169">
        <ele>191.8</ele>
        <time>2026-08-23T07:52:47Z</time>
      </trkpt>
      <trkpt lat="44.60845" lon="0.88169">
        <ele>192.2</ele>
        <time>2026-08-23T07:52:48Z</time>
      </trkpt>
      <trkpt lat="44.60844" lon="0.88169">
        <ele>192.4</ele>
        <time>2026-08-23T07:52:49Z</time>
      </trkpt>
      <trkpt lat="44.60844" lon="0.88169">
        <ele>192.4</ele>
        <time>2026-08-23T07:52:50Z</time>
      </trkpt>
      <trkpt lat="44.60843" lon="0.88169">
        <ele>192.6</ele>
        <time>2026-08-23T07:52:51Z</time>
      </trkpt>
      <trkpt lat="44.60843" lon="0.88171">
        <ele>192.6</ele>
        <time>2026-08-23T07:52:52Z</time>
      </trkpt>
      <trkpt lat="44.60842" lon="0.88172">
        <ele>192.6</ele>
        <time>2026-08-23T07:52:53Z</time>
      </trkpt>
      <trkpt lat="44.60842" lon="0.88174">
        <ele>192.6</ele>
        <time>2026-08-23T07:52:54Z</time>
      </trkpt>
      <trkpt lat="44.60842" lon="0.88178">
        <ele>192.6</ele>
        <time>2026-08-23T07:52:55Z</time>
      </trkpt>
      <trkpt lat="44.60842" lon="0.88181">
        <ele>192.6</ele>
        <time>2026-08-23T07:52:56Z</time>
      </trkpt>
      <trkpt lat="44.60842" lon="0.88184">
        <ele>192.6</ele>
        <time>2026-08-23T07:52:57Z</time>
      </trkpt>
      <trkpt lat="44.60842" lon="0.88188">
        <ele>192.6</ele>
        <time>2026-08-23T07:52:58Z</time>
      </trkpt>
      <trkpt lat="44.60842" lon="0.88191">
        <ele>192.8</ele>
        <time>2026-08-23T07:52:59Z</time>
      </trkpt>
      <trkpt lat="44.60842" lon="0.88198">
        <ele>192.8</ele>
        <time>2026-08-23T07:53:00Z</time>
      </trkpt>
      <trkpt lat="44.60841" lon="0.88202">
        <ele>192.8</ele>
        <time>2026-08-23T07:53:01Z</time>
      </trkpt>
      <trkpt lat="44.60841" lon="0.88207">
        <ele>193</ele>
        <time>2026-08-23T07:53:02Z</time>
      </trkpt>
      <trkpt lat="44.60841" lon="0.88212">
        <ele>193.2</ele>
        <time>2026-08-23T07:53:03Z</time>
      </trkpt>
      <trkpt lat="44.60841" lon="0.88217">
        <ele>193.4</ele>
        <time>2026-08-23T07:53:04Z</time>
      </trkpt>
      <trkpt lat="44.60841" lon="0.88222">
        <ele>193.6</ele>
        <time>2026-08-23T07:53:05Z</time>
      </trkpt>
      <trkpt lat="44.60841" lon="0.88227">
        <ele>193.6</ele>
        <time>2026-08-23T07:53:06Z</time>
      </trkpt>
      <trkpt lat="44.60841" lon="0.88232">
        <ele>193.8</ele>
        <time>2026-08-23T07:53:07Z</time>
      </trkpt>
      <trkpt lat="44.60841" lon="0.88237">
        <ele>193.8</ele>
        <time>2026-08-23T07:53:08Z</time>
      </trkpt>
      <trkpt lat="44.60841" lon="0.88242">
        <ele>194</ele>
        <time>2026-08-23T07:53:09Z</time>
      </trkpt>
      <trkpt lat="44.60841" lon="0.88247">
        <ele>194.2</ele>
        <time>2026-08-23T07:53:10Z</time>
      </trkpt>
      <trkpt lat="44.60841" lon="0.88252">
        <ele>194.4</ele>
        <time>2026-08-23T07:53:11Z</time>
      </trkpt>
      <trkpt lat="44.60841" lon="0.88257">
        <ele>194.4</ele>
        <time>2026-08-23T07:53:12Z</time>
      </trkpt>
      <trkpt lat="44.60841" lon="0.88262">
        <ele>194.6</ele>
        <time>2026-08-23T07:53:13Z</time>
      </trkpt>
      <trkpt lat="44.60841" lon="0.88267">
        <ele>194.6</ele>
        <time>2026-08-23T07:53:14Z</time>
      </trkpt>
      <trkpt lat="44.60841" lon="0.88272">
        <ele>194.6</ele>
        <time>2026-08-23T07:53:15Z</time>
      </trkpt>
      <trkpt lat="44.60841" lon="0.88277">
        <ele>194.8</ele>
        <time>2026-08-23T07:53:16Z</time>
      </trkpt>
      <trkpt lat="44.60841" lon="0.88282">
        <ele>195</ele>
        <time>2026-08-23T07:53:17Z</time>
      </trkpt>
      <trkpt lat="44.60841" lon="0.88287">
        <ele>195.2</ele>
        <time>2026-08-23T07:53:18Z</time>
      </trkpt>
      <trkpt lat="44.60841" lon="0.88292">
        <ele>195.4</ele>
        <time>2026-08-23T07:53:19Z</time>
      </trkpt>
      <trkpt lat="44.60841" lon="0.88296">
        <ele>195.4</ele>
        <time>2026-08-23T07:53:20Z</time>
      </trkpt>
      <trkpt lat="44.60841" lon="0.883">
        <ele>195.6</ele>
        <time>2026-08-23T07:53:21Z</time>
      </trkpt>
      <trkpt lat="44.60841" lon="0.88305">
        <ele>195.8</ele>
        <time>2026-08-23T07:53:22Z</time>
      </trkpt>
      <trkpt lat="44.60841" lon="0.88309">
        <ele>196</ele>
        <time>2026-08-23T07:53:23Z</time>
      </trkpt>
      <trkpt lat="44.60842" lon="0.88313">
        <ele>196.6</ele>
        <time>2026-08-23T07:53:24Z</time>
      </trkpt>
      <trkpt lat="44.60842" lon="0.88317">
        <ele>196.6</ele>
        <time>2026-08-23T07:53:25Z</time>
      </trkpt>
      <trkpt lat="44.60842" lon="0.8832">
        <ele>197</ele>
        <time>2026-08-23T07:53:26Z</time>
      </trkpt>
      <trkpt lat="44.60842" lon="0.88324">
        <ele>197.2</ele>
        <time>2026-08-23T07:53:27Z</time>
      </trkpt>
      <trkpt lat="44.60842" lon="0.88326">
        <ele>197.6</ele>
        <time>2026-08-23T07:53:28Z</time>
      </trkpt>
      <trkpt lat="44.60843" lon="0.88329">
        <ele>197.8</ele>
        <time>2026-08-23T07:53:29Z</time>
      </trkpt>
      <trkpt lat="44.60843" lon="0.88332">
        <ele>198.4</ele>
        <time>2026-08-23T07:53:30Z</time>
      </trkpt>
      <trkpt lat="44.60844" lon="0.88335">
        <ele>198.6</ele>
        <time>2026-08-23T07:53:31Z</time>
      </trkpt>
      <trkpt lat="44.60845" lon="0.88337">
        <ele>198.8</ele>
        <time>2026-08-23T07:53:32Z</time>
      </trkpt>
      <trkpt lat="44.60847" lon="0.88339">
        <ele>199.2</ele>
        <time>2026-08-23T07:53:33Z</time>
      </trkpt>
      <trkpt lat="44.6085" lon="0.88341">
        <ele>199.4</ele>
        <time>2026-08-23T07:53:34Z</time>
      </trkpt>
      <trkpt lat="44.60854" lon="0.88342">
        <ele>199.6</ele>
        <time>2026-08-23T07:53:35Z</time>
      </trkpt>
      <trkpt lat="44.60858" lon="0.88343">
        <ele>199.8</ele>
        <time>2026-08-23T07:53:36Z</time>
      </trkpt>
      <trkpt lat="44.60861" lon="0.88344">
        <ele>199.8</ele>
        <time>2026-08-23T07:53:37Z</time>
      </trkpt>
      <trkpt lat="44.60864" lon="0.88345">
        <ele>200</ele>
        <time>2026-08-23T07:53:38Z</time>
      </trkpt>
      <trkpt lat="44.60868" lon="0.88346">
        <ele>200.2</ele>
        <time>2026-08-23T07:53:39Z</time>
      </trkpt>
      <trkpt lat="44.60871" lon="0.88347">
        <ele>200.2</ele>
        <time>2026-08-23T07:53:40Z</time>
      </trkpt>
      <trkpt lat="44.60873" lon="0.88348">
        <ele>200.2</ele>
        <time>2026-08-23T07:53:41Z</time>
      </trkpt>
      <trkpt lat="44.60876" lon="0.88349">
        <ele>200.2</ele>
        <time>2026-08-23T07:53:42Z</time>
      </trkpt>
      <trkpt lat="44.60879" lon="0.8835">
        <ele>200.2</ele>
        <time>2026-08-23T07:53:43Z</time>
      </trkpt>
      <trkpt lat="44.60882" lon="0.88351">
        <ele>200.2</ele>
        <time>2026-08-23T07:53:44Z</time>
      </trkpt>
      <trkpt lat="44.60884" lon="0.88352">
        <ele>200.2</ele>
        <time>2026-08-23T07:53:45Z</time>
      </trkpt>
      <trkpt lat="44.60887" lon="0.88354">
        <ele>200.2</ele>
        <time>2026-08-23T07:53:46Z</time>
      </trkpt>
      <trkpt lat="44.6089" lon="0.88355">
        <ele>200.2</ele>
        <time>2026-08-23T07:53:47Z</time>
      </trkpt>
      <trkpt lat="44.60893" lon="0.88356">
        <ele>200.2</ele>
        <time>2026-08-23T07:53:48Z</time>
      </trkpt>
      <trkpt lat="44.60896" lon="0.88358">
        <ele>200.2</ele>
        <time>2026-08-23T07:53:49Z</time>
      </trkpt>
      <trkpt lat="44.60899" lon="0.88359">
        <ele>200.2</ele>
        <time>2026-08-23T07:53:50Z</time>
      </trkpt>
      <trkpt lat="44.60903" lon="0.8836">
        <ele>200.2</ele>
        <time>2026-08-23T07:53:51Z</time>
      </trkpt>
      <trkpt lat="44.60906" lon="0.88361">
        <ele>200</ele>
        <time>2026-08-23T07:53:52Z</time>
      </trkpt>
      <trkpt lat="44.60909" lon="0.88361">
        <ele>200</ele>
        <time>2026-08-23T07:53:53Z</time>
      </trkpt>
      <trkpt lat="44.60913" lon="0.88362">
        <ele>200</ele>
        <time>2026-08-23T07:53:54Z</time>
      </trkpt>
      <trkpt lat="44.60917" lon="0.88362">
        <ele>199.8</ele>
        <time>2026-08-23T07:53:55Z</time>
      </trkpt>
      <trkpt lat="44.60922" lon="0.88362">
        <ele>199.8</ele>
        <time>2026-08-23T07:53:56Z</time>
      </trkpt>
      <trkpt lat="44.60926" lon="0.88364">
        <ele>199.8</ele>
        <time>2026-08-23T07:53:57Z</time>
      </trkpt>
      <trkpt lat="44.60929" lon="0.88365">
        <ele>199.8</ele>
        <time>2026-08-23T07:53:58Z</time>
      </trkpt>
      <trkpt lat="44.60933" lon="0.88368">
        <ele>200</ele>
        <time>2026-08-23T07:53:59Z</time>
      </trkpt>
      <trkpt lat="44.60935" lon="0.88373">
        <ele>200</ele>
        <time>2026-08-23T07:54:00Z</time>
      </trkpt>
      <trkpt lat="44.60936" lon="0.88378">
        <ele>200.2</ele>
        <time>2026-08-23T07:54:01Z</time>
      </trkpt>
      <trkpt lat="44.60936" lon="0.88383">
        <ele>200.2</ele>
        <time>2026-08-23T07:54:02Z</time>
      </trkpt>
      <trkpt lat="44.60935" lon="0.88389">
        <ele>200.2</ele>
        <time>2026-08-23T07:54:03Z</time>
      </trkpt>
      <trkpt lat="44.60934" lon="0.88395">
        <ele>200.2</ele>
        <time>2026-08-23T07:54:04Z</time>
      </trkpt>
      <trkpt lat="44.60934" lon="0.88401">
        <ele>199.8</ele>
        <time>2026-08-23T07:54:05Z</time>
      </trkpt>
      <trkpt lat="44.60936" lon="0.88405">
        <ele>199.6</ele>
        <time>2026-08-23T07:54:06Z</time>
      </trkpt>
      <trkpt lat="44.60938" lon="0.88406">
        <ele>199.4</ele>
        <time>2026-08-23T07:54:07Z</time>
      </trkpt>
      <trkpt lat="44.60941" lon="0.88407">
        <ele>199</ele>
        <time>2026-08-23T07:54:08Z</time>
      </trkpt>
      <trkpt lat="44.60944" lon="0.88408">
        <ele>198.6</ele>
        <time>2026-08-23T07:54:09Z</time>
      </trkpt>
      <trkpt lat="44.60947" lon="0.88409">
        <ele>198.6</ele>
        <time>2026-08-23T07:54:10Z</time>
      </trkpt>
      <trkpt lat="44.60951" lon="0.88411">
        <ele>198.4</ele>
        <time>2026-08-23T07:54:11Z</time>
      </trkpt>
      <trkpt lat="44.60954" lon="0.88413">
        <ele>198.2</ele>
        <time>2026-08-23T07:54:12Z</time>
      </trkpt>
      <trkpt lat="44.60957" lon="0.88417">
        <ele>198.2</ele>
        <time>2026-08-23T07:54:13Z</time>
      </trkpt>
      <trkpt lat="44.6096" lon="0.88421">
        <ele>198.2</ele>
        <time>2026-08-23T07:54:14Z</time>
      </trkpt>
      <trkpt lat="44.60964" lon="0.88425">
        <ele>198</ele>
        <time>2026-08-23T07:54:15Z</time>
      </trkpt>
      <trkpt lat="44.60968" lon="0.8843">
        <ele>197.8</ele>
        <time>2026-08-23T07:54:16Z</time>
      </trkpt>
      <trkpt lat="44.60972" lon="0.88435">
        <ele>197.6</ele>
        <time>2026-08-23T07:54:17Z</time>
      </trkpt>
      <trkpt lat="44.60978" lon="0.88443">
        <ele>197.6</ele>
        <time>2026-08-23T07:54:18Z</time>
      </trkpt>
      <trkpt lat="44.60982" lon="0.8845">
        <ele>197.2</ele>
        <time>2026-08-23T07:54:19Z</time>
      </trkpt>
      <trkpt lat="44.60986" lon="0.88458">
        <ele>196.8</ele>
        <time>2026-08-23T07:54:20Z</time>
      </trkpt>
      <trkpt lat="44.6099" lon="0.88465">
        <ele>196.6</ele>
        <time>2026-08-23T07:54:21Z</time>
      </trkpt>
      <trkpt lat="44.60994" lon="0.88472">
        <ele>196.2</ele>
        <time>2026-08-23T07:54:22Z</time>
      </trkpt>
      <trkpt lat="44.60997" lon="0.88479">
        <ele>195.6</ele>
        <time>2026-08-23T07:54:23Z</time>
      </trkpt>
      <trkpt lat="44.61" lon="0.88484">
        <ele>195.2</ele>
        <time>2026-08-23T07:54:24Z</time>
      </trkpt>
      <trkpt lat="44.61002" lon="0.88487">
        <ele>194.8</ele>
        <time>2026-08-23T07:54:25Z</time>
      </trkpt>
      <trkpt lat="44.61004" lon="0.88491">
        <ele>194.6</ele>
        <time>2026-08-23T07:54:26Z</time>
      </trkpt>
      <trkpt lat="44.61004" lon="0.88495">
        <ele>194.2</ele>
        <time>2026-08-23T07:54:27Z</time>
      </trkpt>
      <trkpt lat="44.61004" lon="0.88499">
        <ele>193.8</ele>
        <time>2026-08-23T07:54:28Z</time>
      </trkpt>
      <trkpt lat="44.61004" lon="0.88504">
        <ele>193.6</ele>
        <time>2026-08-23T07:54:29Z</time>
      </trkpt>
      <trkpt lat="44.61005" lon="0.88509">
        <ele>193.6</ele>
        <time>2026-08-23T07:54:30Z</time>
      </trkpt>
      <trkpt lat="44.61007" lon="0.88514">
        <ele>193.4</ele>
        <time>2026-08-23T07:54:31Z</time>
      </trkpt>
      <trkpt lat="44.6101" lon="0.88518">
        <ele>193.4</ele>
        <time>2026-08-23T07:54:32Z</time>
      </trkpt>
      <trkpt lat="44.61013" lon="0.88522">
        <ele>193.2</ele>
        <time>2026-08-23T07:54:33Z</time>
      </trkpt>
      <trkpt lat="44.61016" lon="0.88527">
        <ele>193.2</ele>
        <time>2026-08-23T07:54:34Z</time>
      </trkpt>
      <trkpt lat="44.61019" lon="0.88531">
        <ele>193.2</ele>
        <time>2026-08-23T07:54:35Z</time>
      </trkpt>
      <trkpt lat="44.61022" lon="0.88536">
        <ele>192.8</ele>
        <time>2026-08-23T07:54:36Z</time>
      </trkpt>
      <trkpt lat="44.61024" lon="0.88541">
        <ele>192.6</ele>
        <time>2026-08-23T07:54:37Z</time>
      </trkpt>
      <trkpt lat="44.61027" lon="0.88546">
        <ele>192.6</ele>
        <time>2026-08-23T07:54:38Z</time>
      </trkpt>
      <trkpt lat="44.61029" lon="0.88552">
        <ele>192.4</ele>
        <time>2026-08-23T07:54:39Z</time>
      </trkpt>
      <trkpt lat="44.61032" lon="0.88557">
        <ele>192.2</ele>
        <time>2026-08-23T07:54:40Z</time>
      </trkpt>
      <trkpt lat="44.61035" lon="0.88563">
        <ele>191.8</ele>
        <time>2026-08-23T07:54:41Z</time>
      </trkpt>
      <trkpt lat="44.61039" lon="0.88569">
        <ele>191.6</ele>
        <time>2026-08-23T07:54:42Z</time>
        <extensions>
          <visugpx:TrkExtension xmlns:visugpx="https://www.visugpx.com/editgpx/">
            <visugpx:node>1</visugpx:node>
            </visugpx:TrkExtension>
        </extensions>
      </trkpt>
    </trkseg>
  </trk>
</gpx>